Time;durP1;ratioP1;P1;durP2;ratioP2;P2;SDS_P1;SDS_P2;PMS_P1;PMS_P2;Temp;Humidity;BMP_temperature;BMP_pressure;BME280_temperature;BME280_humidity;BME280_pressure;Samples;Min_cycle;Max_cycle;Signal;HPM_P1;HPM_P2
2021/06/05 00:00:00;;;;;;;16.10;12.82;;;;;;;18.55;71.68;100285.22;4994607;28;20502;-56
2021/06/05 00:02:29;;;;;;;17.42;13.68;;;;;;;18.53;71.72;100283.53;4994704;28;20058;-56
2021/06/05 00:05:00;;;;;;;16.65;13.80;;;;;;;18.54;71.74;100285.22;4993093;28;20042;-57
2021/06/05 00:07:26;;;;;;;15.80;12.65;;;;;;;18.53;71.64;100299.28;4993792;28;20061;-56
2021/06/05 00:09:54;;;;;;;18.10;13.55;;;;;;;18.53;71.72;100289.63;4994500;28;20030;-56
2021/06/05 00:12:28;;;;;;;15.00;12.88;;;;;;;18.52;71.71;100287.88;4994371;28;20042;-56
2021/06/05 00:14:54;;;;;;;;;;;;;;;18.49;71.78;100293.16;4993697;28;20062;-57
2021/06/05 00:17:20;;;;;;;18.90;14.68;;;;;;;18.50;71.99;100287.03;4994358;28;19949;-57
2021/06/05 00:19:46;;;;;;;20.33;14.65;;;;;;;18.51;71.76;100287.94;4994292;28;20034;-57
2021/06/05 00:22:12;;;;;;;21.45;16.50;;;;;;;18.50;71.77;100281.78;4994305;28;20045;-57
2021/06/05 00:24:39;;;;;;;20.25;16.15;;;;;;;18.50;71.76;100286.19;4994261;28;20034;-57
2021/06/05 00:27:05;;;;;;;23.90;15.65;;;;;;;18.51;72.01;100285.31;4993291;28;20044;-56
2021/06/05 00:29:31;;;;;;;22.08;16.60;;;;;;;18.51;71.91;100282.69;4993072;28;20102;-57
2021/06/05 00:31:59;;;;;;;24.20;17.63;;;;;;;18.51;71.89;100277.44;4992647;28;20038;-57
2021/06/05 00:34:24;;;;;;;25.27;17.23;;;;;;;18.51;72.22;100280.91;4993920;28;20489;-57
2021/06/05 00:36:50;;;;;;;21.88;18.50;;;;;;;18.50;71.89;100276.53;4993067;28;20041;-57
2021/06/05 00:39:16;;;;;;;24.40;18.50;;;;;;;18.51;72.16;100282.69;4993013;28;20042;-57
2021/06/05 00:41:43;;;;;;;25.50;18.40;;;;;;;18.52;71.89;100271.28;4994173;28;20146;-56
2021/06/05 00:44:11;;;;;;;24.67;18.58;;;;;;;18.52;71.89;100279.16;4994087;28;20042;-56
2021/06/05 00:46:37;;;;;;;23.67;18.35;;;;;;;18.51;71.95;100273.03;4993477;28;20401;-56
2021/06/05 00:49:04;;;;;;;24.38;20.35;;;;;;;18.52;72.00;100266.91;4992572;28;20050;-56
2021/06/05 00:51:36;;;;;;;25.55;19.85;;;;;;;18.51;71.77;100264.31;4993181;28;20112;-57
2021/06/05 00:54:03;;;;;;;26.58;21.35;;;;;;;18.51;71.94;100270.41;4994054;28;20499;-55
2021/06/05 00:56:31;;;;;;;28.45;21.73;;;;;;;18.51;71.80;100270.41;4994127;28;20034;-56
2021/06/05 00:58:56;;;;;;;29.77;21.38;;;;;;;18.52;71.94;100277.41;4995214;28;20117;-56
2021/06/05 01:01:25;;;;;;;31.35;21.52;;;;;;;18.51;71.95;100272.19;4996100;28;20129;-58
2021/06/05 01:03:52;;;;;;;30.98;22.27;;;;;;;18.51;72.08;100273.03;4998105;28;20044;-57
2021/06/05 01:06:39;;;;;;;34.58;23.02;;;;;;;18.52;71.75;100272.16;4996477;28;20034;-57
2021/06/05 01:09:32;;;;;;;29.63;23.13;;;;;;;18.50;71.90;100271.28;4997970;28;20061;-56
2021/06/05 01:12:13;;;;;;;31.92;23.58;;;;;;;18.50;71.94;100266.03;4997506;28;20050;-57
2021/06/05 01:14:47;;;;;;;33.10;23.92;;;;;;;18.50;72.02;100263.41;4996594;28;20042;-57
2021/06/05 01:17:17;;;;;;;35.55;26.20;;;;;;;18.51;72.21;100261.69;4997654;28;20482;-57
2021/06/05 01:19:57;;;;;;;35.03;25.63;;;;;;;18.49;72.00;100266.94;4996281;28;20076;-56
2021/06/05 01:22:39;;;;;;;34.85;24.90;;;;;;;18.49;71.83;100263.44;4997746;28;20046;-57
2021/06/05 01:25:07;;;;;;;33.80;25.77;;;;;;;18.49;72.25;100266.94;4997690;28;20038;-57
2021/06/05 01:27:37;;;;;;;35.03;25.15;;;;;;;18.49;72.10;100266.06;4997516;28;20038;-56
2021/06/05 01:30:21;;;;;;;35.95;26.35;;;;;;;18.49;72.25;100266.06;4997469;28;20105;-56
2021/06/05 01:32:47;;;;;;;40.37;26.67;;;;;;;18.48;72.28;100270.44;4997122;28;20096;-57
2021/06/05 01:35:14;;;;;;;36.75;26.42;;;;;;;18.47;72.33;100273.94;4996898;28;20289;-57
2021/06/05 01:37:41;;;;;;;41.95;28.95;;;;;;;18.47;72.19;100273.94;4997160;28;20037;-57
2021/06/05 01:40:11;;;;;;;49.58;29.02;;;;;;;18.49;72.34;100281.81;4997029;28;20065;-57
2021/06/05 01:42:37;;;;;;;40.92;29.23;;;;;;;18.49;72.27;100285.31;4995960;28;20030;-57
2021/06/05 01:45:09;;;;;;;44.60;31.60;;;;;;;18.48;72.54;100287.97;4996966;28;20034;-57
2021/06/05 01:47:35;;;;;;;49.03;32.65;;;;;;;18.48;72.71;100294.06;4997622;28;20504;-57
2021/06/05 01:50:04;;;;;;;51.13;33.58;;;;;;;18.49;72.28;100297.56;4997364;28;20054;-56
2021/06/05 01:52:33;;;;;;;49.08;32.53;;;;;;;18.50;72.32;100296.69;4996555;28;20454;-57
2021/06/05 01:55:05;;;;;;;44.75;30.85;;;;;;;18.49;72.34;100295.78;4996733;28;20089;-56
2021/06/05 01:57:34;;;;;;;43.63;30.73;;;;;;;18.50;72.48;100294.91;4996903;28;20030;-56
2021/06/05 01:59:59;;;;;;;42.13;30.48;;;;;;;18.50;72.31;100289.66;4995287;28;20084;-56
2021/06/05 02:02:25;;;;;;;46.80;30.13;;;;;;;18.50;72.56;100287.03;4995927;28;20077;-56
2021/06/05 02:04:51;;;;;;;52.55;29.98;;;;;;;18.51;72.55;100286.16;4995498;28;20041;-56
2021/06/05 02:07:17;;;;;;;50.13;32.38;;;;;;;18.51;72.44;100298.41;4996550;28;20038;-56
2021/06/05 02:09:42;;;;;;;52.15;32.63;;;;;;;18.50;72.40;100294.91;4994654;28;20030;-56
2021/06/05 02:12:16;;;;;;;57.35;34.17;;;;;;;18.48;72.54;100298.44;4995134;28;20116;-56
2021/06/05 02:14:54;;;;;;;50.38;33.88;;;;;;;18.46;72.45;100295.84;4996259;28;20125;-56
2021/06/05 02:17:21;;;;;;;59.20;38.08;;;;;;;18.48;72.60;100290.59;4996552;28;20062;-56
2021/06/05 02:19:54;;;;;;;62.17;38.13;;;;;;;18.49;72.66;100292.31;4994981;28;20035;-57
2021/06/05 02:22:24;;;;;;;60.28;38.85;;;;;;;18.48;72.58;100282.72;4995216;28;20054;-57
2021/06/05 02:24:55;;;;;;;61.42;39.05;;;;;;;18.47;72.64;100279.19;4994624;28;20034;-58
2021/06/05 02:27:24;;;;;;;62.90;40.53;;;;;;;18.47;72.58;100279.19;4995691;28;20038;-57
2021/06/05 02:29:51;;;;;;;62.60;39.67;;;;;;;18.49;72.60;100287.06;4994908;28;20616;-57
2021/06/05 02:32:22;;;;;;;63.67;41.78;;;;;;;18.48;72.64;100293.22;4996148;28;20045;-55
2021/06/05 02:34:48;;;;;;;64.82;40.50;;;;;;;18.47;72.73;100284.44;4978899;28;20039;-56
2021/06/05 02:37:17;;;;;;;61.05;40.35;;;;;;;18.44;72.66;100275.75;4996035;28;20093;-57
2021/06/05 02:39:43;;;;;;;61.72;39.28;;;;;;;18.43;72.83;100280.16;4994904;28;20045;-56
2021/06/05 02:42:15;;;;;;;58.92;40.88;;;;;;;18.42;72.66;100281.88;4994943;28;20027;-57
2021/06/05 02:44:48;;;;;;;59.97;40.67;;;;;;;18.41;72.60;100269.66;4978606;28;20379;-57
2021/06/05 02:47:14;;;;;;;60.50;41.83;;;;;;;18.41;72.72;100276.66;4994756;28;20041;-57
2021/06/05 02:49:41;;;;;;;65.50;42.45;;;;;;;18.41;72.75;100279.28;4994750;28;20066;-57
2021/06/05 02:52:28;;;;;;;60.25;41.70;;;;;;;18.40;72.87;100280.19;4994402;28;20031;-57
2021/06/05 02:55:21;;;;;;;63.03;43.70;;;;;;;18.38;72.54;100274.09;4994801;28;20046;-57
2021/06/05 02:57:47;;;;;;;63.05;44.45;;;;;;;18.39;72.75;100271.44;4995618;28;20049;-57
2021/06/05 03:00:25;;;;;;;68.20;44.47;;;;;;;18.38;72.75;100261.81;4995701;28;20118;-57
2021/06/05 03:02:51;;;;;;;69.95;46.70;;;;;;;18.38;72.89;100263.59;4994107;28;20422;-57
2021/06/05 03:05:17;;;;;;;71.88;46.13;;;;;;;18.39;72.83;100270.56;4994377;28;20034;-57
2021/06/05 03:07:42;;;;;;;76.07;48.40;;;;;;;18.38;72.59;100263.59;4995814;28;20035;-57
2021/06/05 03:10:08;;;;;;;69.00;46.28;;;;;;;18.37;72.71;100267.94;4995354;28;20042;-57
2021/06/05 03:12:34;;;;;;;78.32;47.58;;;;;;;18.38;72.85;100272.31;4978051;28;20065;-57
2021/06/05 03:15:00;;;;;;;73.90;48.50;;;;;;;18.38;73.02;100264.44;4994093;28;20067;-57
2021/06/05 03:17:28;;;;;;;70.93;47.53;;;;;;;18.38;72.71;100263.59;4993851;28;20030;-57
2021/06/05 03:19:55;;;;;;;82.03;49.53;;;;;;;18.37;72.72;100269.72;4995776;28;20073;-57
2021/06/05 03:22:21;;;;;;;80.40;52.10;;;;;;;18.36;73.00;100271.50;4977342;28;20113;-57
2021/06/05 03:24:47;;;;;;;79.57;50.67;;;;;;;18.37;72.97;100262.69;4994007;28;20544;-55
2021/06/05 03:27:12;;;;;;;82.25;52.20;;;;;;;18.35;73.03;100264.50;4994710;28;20117;-56
2021/06/05 03:29:38;;;;;;;85.45;55.35;;;;;;;18.36;72.90;100263.63;4993705;28;20053;-56
2021/06/05 03:32:05;;;;;;;91.88;55.70;;;;;;;18.35;73.03;100261.00;4994754;28;20035;-56
2021/06/05 03:34:30;;;;;;;94.20;56.10;;;;;;;18.35;72.83;100256.63;4994731;28;20123;-55
2021/06/05 03:36:56;;;;;;;96.20;56.08;;;;;;;18.36;73.00;100254.88;4995084;28;20501;-57
2021/06/05 03:39:22;;;;;;;100.60;57.78;;;;;;;18.36;73.11;100258.38;4994965;28;20414;-56
2021/06/05 03:41:48;;;;;;;99.03;57.80;;;;;;;18.35;73.20;100254.00;4994792;28;20065;-55
2021/06/05 03:44:14;;;;;;;93.97;57.70;;;;;;;18.36;73.15;100252.25;4993545;28;20057;-56
2021/06/05 03:46:39;;;;;;;97.32;56.47;;;;;;;18.36;73.05;100255.75;4993341;28;20033;-56
2021/06/05 03:49:06;;;;;;;97.88;57.22;;;;;;;18.36;72.95;100257.50;4994426;28;20042;-56
2021/06/05 03:51:33;;;;;;;94.13;55.80;;;;;;;18.35;73.13;100259.25;4994960;28;20034;-57
2021/06/05 03:53:58;;;;;;;97.00;56.05;;;;;;;18.36;73.12;100253.13;4993760;28;20497;-57
2021/06/05 03:56:25;;;;;;;92.22;54.70;;;;;;;18.35;73.27;100254.00;4994494;28;20035;-57
2021/06/05 03:58:52;;;;;;;93.47;54.33;;;;;;;18.35;73.27;100250.50;4993267;28;20045;-57
2021/06/05 04:01:22;;;;;;;89.80;55.47;;;;;;;18.35;73.10;100254.00;4994085;28;20030;-57
2021/06/05 04:03:48;;;;;;;88.57;54.65;;;;;;;18.37;73.18;100259.22;4994813;28;20081;-57
2021/06/05 04:06:15;;;;;;;84.72;52.20;;;;;;;18.35;73.19;100256.63;4994575;28;20076;-56
2021/06/05 04:08:41;;;;;;;82.63;51.10;;;;;;;18.36;73.33;100249.63;4992879;28;20045;-57
2021/06/05 04:11:08;;;;;;;79.38;49.53;;;;;;;18.36;73.27;100260.09;4993141;28;20034;-56
2021/06/05 04:13:34;;;;;;;75.00;48.92;;;;;;;18.33;73.05;100257.53;4993185;28;20061;-57
2021/06/05 04:15:59;;;;;;;80.32;50.47;;;;;;;18.34;73.20;100257.53;4994066;28;20482;-57
2021/06/05 04:18:29;;;;;;;78.72;50.53;;;;;;;18.34;73.25;100256.63;4993103;28;20041;-57
2021/06/05 04:20:55;;;;;;;82.90;50.75;;;;;;;18.34;73.31;100254.00;4994537;28;20163;-57
2021/06/05 04:23:20;;;;;;;78.85;48.53;;;;;;;18.34;73.17;100269.75;4994135;28;20489;-57
2021/06/05 04:25:46;;;;;;;75.57;49.05;;;;;;;18.32;73.23;100256.66;4993337;28;20049;-57
2021/06/05 04:28:14;;;;;;;79.57;48.17;;;;;;;18.31;73.31;100256.66;4992701;28;20508;-57
2021/06/05 04:30:41;;;;;;;81.78;47.13;;;;;;;18.31;73.13;100264.53;4993975;28;20474;-57
2021/06/05 04:33:09;;;;;;;82.15;48.03;;;;;;;18.29;73.53;100255.84;4994021;28;20095;-57
2021/06/05 04:35:35;;;;;;;80.97;48.17;;;;;;;18.26;73.33;100257.63;4992998;28;20044;-57
2021/06/05 04:38:00;;;;;;;76.10;45.88;;;;;;;18.27;73.40;100258.47;4994010;28;20117;-57
2021/06/05 04:40:27;;;;;;;78.95;47.38;;;;;;;18.29;73.65;100263.72;4994117;28;20038;-57
2021/06/05 04:42:53;;;;;;;69.30;45.05;;;;;;;18.26;73.56;100261.97;4993766;28;20089;-57
2021/06/05 04:45:19;;;;;;;79.55;47.92;;;;;;;18.25;73.47;100261.13;4994275;28;20042;-57
2021/06/05 04:47:45;;;;;;;81.15;46.10;;;;;;;18.25;73.49;100257.63;4992530;28;20046;-57
2021/06/05 04:50:13;;;;;;;71.75;45.13;;;;;;;18.23;73.43;100257.66;4994015;28;20529;-57
2021/06/05 04:52:38;;;;;;;75.10;46.15;;;;;;;18.23;73.46;100260.28;4993917;28;20039;-57
2021/06/05 04:55:06;;;;;;;79.57;49.10;;;;;;;18.23;73.54;100256.75;4976766;28;20457;-57
2021/06/05 04:57:32;;;;;;;73.32;46.08;;;;;;;18.22;73.69;100260.28;4993314;28;20045;-57
2021/06/05 04:59:58;;;;;;;82.60;50.13;;;;;;;18.21;73.50;100269.06;4994099;28;20410;-57
2021/06/05 05:02:23;;;;;;;84.15;50.58;;;;;;;18.20;73.44;100276.03;4976164;28;20096;-57
2021/06/05 05:04:49;;;;;;;102.03;56.95;;;;;;;18.18;73.56;100277.81;4992861;28;20433;-57
2021/06/05 05:07:15;;;;;;;93.97;55.72;;;;;;;18.17;73.79;100275.22;4993532;28;20034;-57
2021/06/05 05:09:41;;;;;;;97.45;57.03;;;;;;;18.15;73.73;100282.22;4992555;28;20039;-57
2021/06/05 05:12:07;;;;;;;95.53;54.92;;;;;;;18.15;73.44;100290.09;4993561;28;20117;-57
2021/06/05 05:14:33;;;;;;;94.97;56.38;;;;;;;18.16;73.58;100290.06;4994221;28;20041;-57
2021/06/05 05:16:59;;;;;;;94.53;54.80;;;;;;;18.15;73.57;100290.94;4992718;28;20039;-57
2021/06/05 05:19:25;;;;;;;94.43;56.95;;;;;;;18.13;73.66;100284.88;4992628;28;20034;-57
2021/06/05 05:21:51;;;;;;;95.80;57.15;;;;;;;18.13;73.50;100298.00;4993756;28;20093;-57
2021/06/05 05:24:17;;;;;;;95.50;56.80;;;;;;;18.11;73.78;100295.38;4993653;28;20042;-57
2021/06/05 05:26:42;;;;;;;96.55;57.15;;;;;;;18.11;73.67;100298.00;4992180;28;20096;-57
2021/06/05 05:29:07;;;;;;;91.95;57.85;;;;;;;18.11;73.71;100300.63;4993872;28;20043;-57
2021/06/05 05:31:33;;;;;;;91.57;56.42;;;;;;;18.12;73.33;100304.13;4993846;28;20093;-57
2021/06/05 05:34:00;;;;;;;99.10;58.33;;;;;;;18.10;73.51;100295.41;4993784;28;20045;-57
2021/06/05 05:36:33;;;;;;;69.88;45.05;;;;;;;18.08;73.65;100297.16;4976382;28;20038;-57
2021/06/05 05:38:59;;;;;;;54.20;36.50;;;;;;;18.07;73.74;100300.66;4992494;28;20045;-57
2021/06/05 05:41:25;;;;;;;44.78;28.85;;;;;;;18.05;73.76;100303.31;4976053;28;20031;-57
2021/06/05 05:43:51;;;;;;;36.72;26.35;;;;;;;18.05;73.61;100305.06;4977003;28;20034;-57
2021/06/05 05:46:17;;;;;;;34.55;24.15;;;;;;;18.03;73.77;100302.47;4995502;28;20088;-57
2021/06/05 05:48:43;;;;;;;34.92;22.92;;;;;;;18.02;73.65;100302.47;4997048;28;20118;-56
2021/06/05 05:51:11;;;;;;;29.52;21.73;;;;;;;18.00;73.68;100312.09;4997243;28;20165;-56
2021/06/05 05:53:39;;;;;;;24.30;19.08;;;;;;;17.98;73.60;100316.50;4979846;28;20398;-56
2021/06/05 05:56:06;;;;;;;25.13;19.48;;;;;;;17.97;73.62;100320.84;4995952;28;20042;-56
2021/06/05 05:58:36;;;;;;;22.73;18.25;;;;;;;17.95;73.70;100320.88;4995590;28;20034;-56
2021/06/05 06:01:03;;;;;;;23.20;17.60;;;;;;;17.94;73.88;100327.00;4995593;28;20041;-56
2021/06/05 06:03:30;;;;;;;23.73;18.55;;;;;;;17.92;73.73;100330.50;4995320;28;20042;-56
2021/06/05 06:05:55;;;;;;;23.55;18.10;;;;;;;17.92;73.61;100336.63;4979281;28;20046;-56
2021/06/05 06:08:21;;;;;;;24.95;18.52;;;;;;;17.92;73.66;100335.75;4995333;28;20038;-56
2021/06/05 06:10:48;;;;;;;25.52;19.65;;;;;;;17.90;73.78;100340.16;4995168;28;20434;-56
2021/06/05 06:13:14;;;;;;;24.85;17.95;;;;;;;17.89;73.93;100343.66;4995232;28;20030;-56
2021/06/05 06:15:41;;;;;;;25.83;20.13;;;;;;;17.86;73.60;100351.53;4997022;28;20386;-56
2021/06/05 06:18:11;;;;;;;26.58;19.10;;;;;;;17.85;73.61;100357.66;4996431;28;20041;-56
2021/06/05 06:20:45;;;;;;;28.15;20.42;;;;;;;17.84;73.86;100358.56;4995370;28;20041;-56
2021/06/05 06:23:13;;;;;;;22.63;18.45;;;;;;;17.85;73.64;100362.91;4995034;28;20042;-56
2021/06/05 06:25:40;;;;;;;24.92;19.08;;;;;;;17.82;73.55;100358.56;4995483;28;20038;-56
2021/06/05 06:28:12;;;;;;;25.60;17.98;;;;;;;17.79;73.74;100362.06;4995101;28;20138;-56
2021/06/05 06:30:41;;;;;;;26.83;19.38;;;;;;;17.80;73.72;100365.59;4979273;28;20042;-56
2021/06/05 06:33:09;;;;;;;26.33;18.75;;;;;;;17.79;73.77;100363.84;4994688;28;20096;-56
2021/06/05 06:35:35;;;;;;;24.73;19.38;;;;;;;17.77;73.61;100373.47;4994945;28;20081;-56
2021/06/05 06:38:04;;;;;;;27.58;20.63;;;;;;;17.75;73.74;100373.47;4994791;28;20510;-56
2021/06/05 06:40:32;;;;;;;28.52;20.98;;;;;;;17.75;73.65;100368.22;4996089;28;20493;-56
2021/06/05 06:42:59;;;;;;;27.45;21.23;;;;;;;17.73;73.60;100370.00;4996205;28;20046;-56
2021/06/05 06:45:27;;;;;;;27.63;20.92;;;;;;;17.73;73.69;100370.00;4996138;28;20061;-56
2021/06/05 06:47:56;;;;;;;30.45;22.90;;;;;;;17.73;73.80;100379.59;4996008;28;20049;-56
2021/06/05 06:50:25;;;;;;;30.98;22.42;;;;;;;17.73;73.78;100382.22;4994613;28;20034;-56
2021/06/05 06:52:51;;;;;;;31.95;22.75;;;;;;;17.71;73.82;100379.63;4978479;28;20043;-55
2021/06/05 06:55:18;;;;;;;32.80;23.52;;;;;;;17.71;73.76;100381.38;4994582;28;20026;-56
2021/06/05 06:57:44;;;;;;;33.80;24.38;;;;;;;17.70;73.76;100379.63;4994452;28;20061;-55
2021/06/05 07:00:14;;;;;;;29.25;22.75;;;;;;;17.70;73.72;100379.63;4994522;28;20093;-56
2021/06/05 07:02:39;;;;;;;31.45;23.45;;;;;;;17.68;73.78;100384.91;4994458;28;20152;-57
2021/06/05 07:05:06;;;;;;;29.92;22.58;;;;;;;17.68;73.81;100389.25;4993901;28;20455;-56
2021/06/05 07:07:32;;;;;;;28.95;21.25;;;;;;;17.69;73.75;100397.13;4995205;28;20117;-56
2021/06/05 07:09:57;;;;;;;27.52;20.80;;;;;;;17.68;73.82;100405.88;4995197;28;20125;-57
2021/06/05 07:12:23;;;;;;;30.13;22.35;;;;;;;17.68;73.97;100403.25;4995683;28;20474;-56
2021/06/05 07:14:49;;;;;;;27.73;21.38;;;;;;;17.67;73.95;100408.50;4994064;28;20241;-55
2021/06/05 07:17:15;;;;;;;27.95;21.55;;;;;;;17.65;73.86;100404.16;4994011;28;20030;-57
2021/06/05 07:19:40;;;;;;;31.15;23.40;;;;;;;17.64;73.81;100406.75;4993962;28;20050;-57
2021/06/05 07:22:05;;;;;;;26.90;20.90;;;;;;;17.63;73.99;100403.28;4994612;28;20089;-57
2021/06/05 07:24:31;;;;;;;24.65;19.20;;;;;;;17.62;73.79;100406.78;4994083;28;20042;-57
2021/06/05 07:26:57;;;;;;;26.48;22.02;;;;;;;17.61;73.72;100407.66;4994134;28;20137;-57
2021/06/05 07:29:23;;;;;;;22.27;19.75;;;;;;;17.60;73.89;100410.28;4978043;28;20046;-57
2021/06/05 07:31:51;;;;;;;25.40;20.95;;;;;;;17.60;73.81;100411.16;4977713;28;20034;-57
2021/06/05 07:34:22;;;;;;;28.40;22.05;;;;;;;17.57;73.75;100416.41;4993378;28;20553;-57
2021/06/05 07:36:51;;;;;;;25.45;20.67;;;;;;;17.57;73.71;100412.94;4993989;28;20038;-57
2021/06/05 07:39:27;;;;;;;25.70;19.98;;;;;;;17.54;73.70;100416.44;4993954;28;20038;-57
2021/06/05 07:41:54;;;;;;;24.10;19.35;;;;;;;17.55;74.12;100412.06;4994002;28;20112;-57
2021/06/05 07:44:21;;;;;;;25.58;20.05;;;;;;;17.54;73.78;100413.81;4994802;28;20490;-57
2021/06/05 07:46:50;;;;;;;24.88;20.73;;;;;;;17.54;73.76;100423.44;4993803;28;20077;-58
2021/06/05 07:49:28;;;;;;;23.58;19.35;;;;;;;17.55;73.84;100422.56;4994350;28;20030;-56
2021/06/05 07:51:53;;;;;;;22.33;19.90;;;;;;;17.53;73.81;100425.16;4993465;28;20038;-56
2021/06/05 07:54:20;;;;;;;22.85;18.50;;;;;;;17.50;73.78;100417.34;4994468;28;20093;-56
2021/06/05 07:56:49;;;;;;;21.55;19.15;;;;;;;17.50;73.59;100425.22;4977084;28;20501;-58
2021/06/05 07:59:20;;;;;;;22.70;19.15;;;;;;;17.47;73.69;100423.47;4993305;28;20046;-56
2021/06/05 08:01:45;;;;;;;25.83;19.20;;;;;;;17.47;73.77;100418.22;4994724;28;20600;-57
2021/06/05 08:04:11;;;;;;;24.45;19.88;;;;;;;17.49;73.89;100426.09;4977414;28;20042;-57
2021/06/05 08:06:38;;;;;;;24.20;20.70;;;;;;;17.46;73.70;100424.34;4993682;28;20038;-57
2021/06/05 08:09:05;;;;;;;24.95;19.92;;;;;;;17.45;73.90;100419.13;4992874;28;20038;-57
2021/06/05 08:11:31;;;;;;;23.85;20.08;;;;;;;17.43;73.62;100420.88;4994626;28;20057;-57
2021/06/05 08:13:56;;;;;;;23.83;21.23;;;;;;;17.44;73.84;100425.25;4994443;28;20452;-57
2021/06/05 08:16:22;;;;;;;24.50;20.10;;;;;;;17.43;73.70;100420.88;4977249;28;20057;-57
2021/06/05 08:18:47;;;;;;;24.35;20.75;;;;;;;17.43;73.73;100428.75;4992960;28;20039;-56
2021/06/05 08:21:16;;;;;;;25.58;19.48;;;;;;;17.43;73.78;100428.75;4994505;28;20377;-56
2021/06/05 08:23:43;;;;;;;25.08;20.83;;;;;;;17.42;73.97;100427.00;4994168;28;20035;-56
2021/06/05 08:26:10;;;;;;;25.58;21.60;;;;;;;17.42;73.89;100427.00;4976797;28;20121;-56
2021/06/05 08:28:37;;;;;;;24.27;21.00;;;;;;;17.42;73.81;100427.00;4976823;28;20041;-56
2021/06/05 08:31:06;;;;;;;27.38;22.02;;;;;;;17.41;73.49;100422.63;4993214;28;20034;-56
2021/06/05 08:33:32;;;;;;;24.83;21.52;;;;;;;17.41;73.80;100428.75;4976707;28;20121;-56
2021/06/05 08:35:58;;;;;;;28.88;23.05;;;;;;;17.40;73.72;100427.03;4976679;28;20084;-56
2021/06/05 08:38:27;;;;;;;28.20;23.65;;;;;;;17.39;73.82;100427.00;4992786;28;20070;-56
2021/06/05 08:41:21;;;;;;;26.70;23.42;;;;;;;17.36;73.69;100427.91;4993922;28;20054;-56
2021/06/05 08:43:54;;;;;;;30.63;24.25;;;;;;;17.35;74.03;100424.44;4992360;28;20050;-56
2021/06/05 08:46:28;;;;;;;30.70;24.60;;;;;;;17.34;73.72;100427.94;4976551;28;20125;-56
2021/06/05 08:48:56;;;;;;;;;;;;;;;17.31;73.81;100429.66;4993436;28;20402;-56
2021/06/05 08:51:37;;;;;;;28.70;23.40;;;;;;;17.34;73.69;100429.66;4993573;28;19913;-56
2021/06/05 08:54:18;;;;;;;31.75;25.08;;;;;;;17.33;73.69;100425.31;4993145;28;20050;-56
2021/06/05 08:56:45;;;;;;;29.77;22.45;;;;;;;17.35;73.84;100415.69;4976696;28;20042;-56
2021/06/05 08:59:19;;;;;;;30.92;24.30;;;;;;;17.36;73.80;100425.28;4993969;28;20035;-56
2021/06/05 09:01:46;;;;;;;29.50;22.45;;;;;;;17.37;73.91;100426.16;4992616;28;20046;-56
2021/06/05 09:04:22;;;;;;;27.98;22.98;;;;;;;17.36;73.68;100422.66;4993400;28;20112;-56
2021/06/05 09:06:54;;;;;;;33.40;23.35;;;;;;;17.37;73.61;100427.03;4994285;28;20046;-56
2021/06/05 09:09:28;;;;;;;33.15;23.88;;;;;;;17.37;73.69;100421.78;4994157;28;20117;-56
2021/06/05 09:11:54;;;;;;;28.92;22.23;;;;;;;17.37;73.76;100428.75;4976687;28;20125;-56
2021/06/05 09:14:20;;;;;;;28.10;21.77;;;;;;;17.37;73.66;100427.03;4993403;28;20576;-56
2021/06/05 09:16:50;;;;;;;31.55;23.95;;;;;;;17.36;73.66;100427.91;4976216;28;20057;-56
2021/06/05 09:19:36;;;;;;;32.97;24.58;;;;;;;17.34;73.72;100422.69;4994091;28;20434;-56
2021/06/05 09:22:05;;;;;;;32.15;24.80;;;;;;;17.36;73.64;100425.28;4997660;28;20065;-55
2021/06/05 09:24:38;;;;;;;34.13;26.23;;;;;;;17.35;73.67;100429.66;4996211;28;20041;-57
2021/06/05 09:27:13;;;;;;;33.40;25.35;;;;;;;17.34;73.79;100429.66;4995950;28;20519;-57
2021/06/05 09:29:51;;;;;;;35.78;26.23;;;;;;;17.33;73.79;100435.78;4996517;28;20498;-57
2021/06/05 09:32:47;;;;;;;35.67;26.25;;;;;;;17.33;73.79;100439.28;4996190;28;20034;-57
2021/06/05 09:35:21;;;;;;;34.63;26.83;;;;;;;17.31;73.64;100441.03;4995014;28;20042;-57
2021/06/05 09:37:57;;;;;;;39.03;28.60;;;;;;;17.27;73.72;100431.44;4996128;28;20092;-56
2021/06/05 09:40:32;;;;;;;39.00;28.15;;;;;;;17.27;73.58;100441.94;4995471;28;20038;-56
2021/06/05 09:43:19;;;;;;;43.45;31.00;;;;;;;17.25;73.77;100446.31;4997237;28;20035;-56
2021/06/05 09:46:04;;;;;;;43.17;31.27;;;;;;;17.24;73.83;100448.94;4995584;28;20047;-56
2021/06/05 09:48:36;;;;;;;48.17;33.05;;;;;;;17.23;73.89;100442.81;4980275;28;20039;-56
2021/06/05 09:51:32;;;;;;;49.85;34.38;;;;;;;17.18;73.71;100450.69;4979952;28;20054;-56
2021/06/05 09:53:57;;;;;;;47.22;32.92;;;;;;;17.21;73.64;100452.41;4979738;28;20121;-56
2021/06/05 09:56:37;;;;;;;47.45;33.75;;;;;;;17.18;73.77;100455.94;4995678;28;20081;-56
2021/06/05 09:59:23;;;;;;;48.55;32.47;;;;;;;17.17;73.79;100458.56;4978900;28;20046;-55
2021/06/05 10:01:59;;;;;;;49.33;33.97;;;;;;;17.16;73.77;100456.84;4978727;28;20054;-57
2021/06/05 10:04:30;;;;;;;46.65;32.90;;;;;;;17.16;73.79;100462.06;4995603;28;20121;-57
2021/06/05 10:06:58;;;;;;;47.40;33.58;;;;;;;17.17;73.78;100461.19;4996711;28;20069;-57
2021/06/05 10:09:30;;;;;;;49.92;32.78;;;;;;;17.17;73.65;100466.44;4995973;28;20048;-56
2021/06/05 10:12:23;;;;;;;44.72;31.42;;;;;;;17.15;73.67;100462.94;4979800;28;20074;-56
2021/06/05 10:15:03;;;;;;;45.70;31.52;;;;;;;17.16;73.77;100467.31;4995324;28;20133;-56
2021/06/05 10:17:47;;;;;;;47.60;31.85;;;;;;;17.15;73.66;100469.03;4995196;28;20034;-56
2021/06/05 10:20:19;;;;;;;55.15;34.00;;;;;;;17.15;73.61;100474.28;4979472;28;20494;-56
2021/06/05 10:22:45;;;;;;;47.40;31.00;;;;;;;17.14;73.63;100469.91;4996796;28;20394;-56
2021/06/05 10:25:51;;;;;;;51.63;34.65;;;;;;;17.11;73.68;100474.31;4995196;28;20038;-56
2021/06/05 10:28:27;;;;;;;49.65;32.05;;;;;;;17.12;73.77;100484.78;4996382;28;20037;-55
2021/06/05 10:31:03;;;;;;;46.83;32.58;;;;;;;17.10;73.75;100489.16;4996210;28;20038;-55
2021/06/05 10:33:34;;;;;;;48.60;31.17;;;;;;;17.10;73.87;100480.41;4995069;28;20111;-55
2021/06/05 10:36:02;;;;;;;51.25;30.83;;;;;;;17.08;73.62;100488.28;4995828;28;20046;-56
2021/06/05 10:38:50;;;;;;;56.67;31.10;;;;;;;17.05;73.54;100490.91;4994568;28;20441;-55
2021/06/05 10:41:21;;;;;;;52.90;30.83;;;;;;;17.07;73.68;100493.50;4994896;28;20039;-56
2021/06/05 10:43:47;;;;;;;56.83;32.17;;;;;;;17.06;73.56;100490.03;4995132;28;20043;-57
2021/06/05 10:46:20;;;;;;;59.92;33.33;;;;;;;17.07;73.70;100488.28;4995754;28;20129;-56
2021/06/05 10:48:47;;;;;;;57.95;33.42;;;;;;;17.07;73.68;100486.53;4995819;28;20065;-57
2021/06/05 10:51:22;;;;;;;55.88;34.58;;;;;;;17.07;73.56;100494.41;4996052;28;20031;-57
2021/06/05 10:54:01;;;;;;;56.00;33.97;;;;;;;17.04;73.55;100495.28;4996144;28;20046;-57
2021/06/05 10:56:49;;;;;;;55.90;32.53;;;;;;;17.04;73.68;100494.41;4994649;28;20044;-57
2021/06/05 10:59:42;;;;;;;65.50;35.95;;;;;;;17.01;73.48;100500.53;4995765;28;20109;-56
2021/06/05 11:02:29;;;;;;;57.03;34.72;;;;;;;17.02;73.73;100499.66;4995362;28;20085;-57
2021/06/05 11:04:55;;;;;;;64.03;37.17;;;;;;;17.03;73.53;100509.25;4998248;28;20104;-57
2021/06/05 11:07:41;;;;;;;66.72;36.58;;;;;;;17.05;73.48;100504.00;4995682;28;20133;-57
2021/06/05 11:10:10;;;;;;;66.72;38.45;;;;;;;17.03;73.66;100506.63;4995320;28;20133;-57
2021/06/05 11:12:46;;;;;;;58.70;35.10;;;;;;;17.00;73.58;100511.00;4995697;28;20038;-57
2021/06/05 11:15:36;;;;;;;64.72;34.85;;;;;;;16.98;73.59;100508.38;4995497;28;20042;-57
2021/06/05 11:18:28;;;;;;;60.38;35.88;;;;;;;16.97;73.48;100516.25;4994138;28;20030;-57
2021/06/05 11:20:53;;;;;;;62.05;35.13;;;;;;;16.95;73.55;100516.25;4994054;28;20057;-57